createdAt,value
2022-08-31T00:00:58.299Z,1.48
2022-08-31T00:06:02.860Z,1.40
2022-08-31T00:11:08.675Z,1.48
2022-08-31T00:16:13.249Z,1.63
2022-08-31T00:21:15.163Z,1.83
2022-08-31T00:26:18.565Z,1.67
2022-08-31T00:31:21.705Z,1.80
2022-08-31T00:36:26.258Z,2.13
2022-08-31T00:41:31.089Z,1.67
2022-08-31T00:46:37.463Z,1.23
2022-08-31T00:51:52.039Z,1.42
2022-08-31T00:56:54.741Z,1.40
2022-08-31T01:01:56.706Z,1.42
2022-08-31T01:06:59.235Z,1.70
2022-08-31T01:12:02.896Z,1.20
2022-08-31T01:17:06.903Z,1.80
2022-08-31T01:22:24.880Z,1.33
2022-08-31T01:32:30.275Z,1.20
2022-08-31T01:37:32.162Z,1.50
2022-08-31T01:42:38.327Z,1.50
2022-08-31T01:47:40.958Z,1.60
2022-08-31T01:52:43.035Z,1.55
2022-08-31T01:57:44.973Z,1.55
2022-08-31T02:03:10.493Z,2.22
2022-08-31T02:08:12.603Z,2.00
2022-08-31T02:13:15.093Z,1.63
2022-08-31T02:18:17.444Z,2.15
2022-08-31T02:23:21.512Z,2.08
2022-08-31T02:28:25.160Z,2.10
2022-08-31T02:33:28.577Z,2.13
2022-08-31T02:38:35.739Z,1.63
2022-08-31T02:43:37.827Z,1.95
2022-08-31T02:48:40.061Z,1.80
2022-08-31T02:53:45.661Z,1.75
2022-08-31T02:58:55.240Z,1.70
2022-08-31T03:04:01.191Z,2.03
2022-08-31T03:09:03.812Z,2.40
2022-08-31T03:14:05.695Z,2.35
2022-08-31T03:19:09.457Z,2.00
2022-08-31T03:24:11.483Z,2.00
2022-08-31T03:29:13.657Z,1.90
2022-08-31T03:39:43.663Z,1.58
2022-08-31T03:44:47.410Z,2.40
2022-08-31T03:49:56.969Z,2.20
2022-08-31T03:55:11.042Z,1.77
2022-08-31T04:00:15.038Z,1.95
2022-08-31T04:05:18.265Z,2.60
2022-08-31T04:10:40.999Z,2.88
2022-08-31T04:16:03.374Z,4.55
2022-08-31T04:21:26.829Z,4.63
2022-08-31T04:26:32.844Z,2.80
2022-08-31T04:31:37.708Z,3.03
2022-08-31T04:36:39.828Z,2.50
2022-08-31T04:41:42.536Z,2.90
2022-08-31T04:46:47.407Z,3.15
2022-08-31T04:51:49.580Z,2.42
2022-08-31T04:56:51.639Z,2.70
2022-08-31T05:02:04.247Z,2.70
2022-08-31T05:07:34.868Z,2.88
2022-08-31T05:12:37.042Z,3.47
2022-08-31T05:17:45.326Z,2.58
2022-08-31T05:22:48.075Z,2.55
2022-08-31T05:27:50.160Z,3.00
2022-08-31T05:32:52.941Z,2.47
2022-08-31T05:37:55.105Z,2.50
2022-08-31T05:42:59.763Z,2.60
2022-08-31T05:48:05.486Z,3.00
2022-08-31T05:58:15.393Z,2.10
2022-08-31T06:03:17.423Z,2.88
2022-08-31T06:08:27.242Z,2.08
2022-08-31T06:13:31.923Z,1.75
2022-08-31T06:18:34.261Z,2.22
2022-08-31T06:23:38.097Z,1.95
2022-08-31T06:28:41.484Z,1.73
2022-08-31T06:33:43.653Z,2.20
2022-08-31T06:38:51.786Z,2.00
2022-08-31T06:44:30.094Z,1.60
2022-08-31T06:49:50.043Z,2.08
2022-08-31T06:54:53.082Z,2.15
2022-08-31T07:00:15.923Z,2.28
2022-08-31T07:05:41.213Z,2.03
2022-08-31T07:10:43.554Z,2.00
2022-08-31T07:15:45.724Z,1.98
2022-08-31T07:20:48.343Z,2.78
2022-08-31T07:25:51.880Z,2.67
2022-08-31T07:30:55.676Z,2.75
2022-08-31T07:35:58.495Z,2.08
2022-08-31T07:41:29.696Z,2.75
2022-08-31T07:46:32.236Z,2.50
2022-08-31T07:51:38.211Z,3.70
2022-08-31T07:57:04.617Z,2.90
2022-08-31T08:02:11.948Z,2.50
2022-08-31T08:07:18.202Z,2.83
2022-08-31T08:12:59.469Z,2.65
2022-08-31T08:18:21.029Z,2.28
2022-08-31T08:23:28.832Z,2.13
2022-08-31T08:28:58.416Z,2.08
2022-08-31T08:34:01.495Z,2.30
2022-08-31T08:39:07.243Z,1.75
2022-08-31T08:44:17.944Z,2.30
2022-08-31T08:49:40.740Z,2.28
2022-08-31T08:54:47.665Z,2.08
2022-08-31T08:59:53.897Z,1.73
2022-08-31T09:05:10.057Z,2.63
2022-08-31T09:11:09.561Z,2.00
2022-08-31T09:16:28.648Z,1.50
2022-08-31T09:21:38.738Z,2.03
2022-08-31T09:27:21.250Z,1.65
2022-08-31T09:32:54.694Z,1.83
2022-08-31T09:38:10.221Z,1.92
2022-08-31T09:43:22.439Z,1.67
2022-08-31T09:48:56.606Z,1.88
2022-08-31T09:54:34.217Z,2.22
2022-08-31T09:59:48.732Z,1.73
2022-08-31T10:05:01.368Z,1.77
2022-08-31T10:10:30.476Z,1.50
2022-08-31T10:15:58.710Z,1.60
2022-08-31T10:21:07.894Z,1.40
2022-08-31T10:26:19.405Z,1.60
2022-08-31T10:31:48.753Z,1.60
2022-08-31T10:37:00.090Z,1.35
2022-08-31T10:42:09.699Z,1.35
2022-08-31T10:47:14.181Z,1.75
2022-08-31T10:52:43.079Z,1.83
2022-08-31T10:57:47.714Z,1.60
2022-08-31T11:03:08.348Z,1.15
2022-08-31T11:08:33.479Z,0.90
2022-08-31T11:14:02.185Z,1.27
2022-08-31T11:19:13.162Z,1.15
2022-08-31T11:24:52.042Z,0.68
2022-08-31T11:30:00.888Z,1.25
2022-08-31T11:35:08.755Z,0.85
2022-08-31T11:40:12.032Z,1.05
2022-08-31T11:45:37.755Z,1.35
2022-08-31T11:50:56.381Z,1.00
2022-08-31T11:56:00.602Z,1.20
2022-08-31T12:01:09.746Z,1.08
2022-08-31T12:06:32.332Z,1.20
2022-08-31T12:11:42.065Z,1.05
2022-08-31T12:17:09.818Z,0.90
2022-08-31T12:23:11.706Z,1.10
2022-08-31T12:28:29.873Z,0.90
2022-08-31T12:33:34.471Z,0.75
2022-08-31T12:38:36.877Z,0.70
2022-08-31T12:43:51.849Z,0.68
2022-08-31T12:49:12.315Z,0.80
2022-08-31T12:54:20.357Z,0.70
2022-08-31T13:00:00.680Z,0.80
2022-08-31T13:05:14.849Z,0.57
2022-08-31T13:10:22.496Z,0.90
2022-08-31T13:15:58.310Z,0.70
2022-08-31T13:21:08.758Z,0.70
2022-08-31T13:26:25.255Z,0.63
2022-08-31T13:31:51.484Z,0.80
2022-08-31T13:37:00.298Z,0.70
2022-08-31T13:42:33.211Z,0.60
2022-08-31T13:47:37.944Z,0.70
2022-08-31T13:53:25.803Z,0.82
2022-08-31T13:58:29.993Z,0.60
2022-08-31T14:03:46.652Z,0.70
2022-08-31T14:08:50.998Z,0.63
2022-08-31T14:13:53.266Z,0.43
2022-08-31T14:18:58.278Z,0.45
2022-08-31T14:24:02.536Z,0.68
2022-08-31T14:29:11.598Z,0.80
2022-08-31T14:34:47.607Z,0.73
2022-08-31T14:39:53.923Z,0.73
2022-08-31T14:45:07.115Z,1.00
2022-08-31T14:50:23.664Z,1.00
2022-08-31T14:55:28.924Z,0.82
2022-08-31T15:00:32.688Z,0.63
2022-08-31T15:05:39.472Z,0.70
2022-08-31T15:10:42.302Z,0.80
2022-08-31T15:15:47.529Z,0.60
2022-08-31T15:20:51.622Z,0.70
2022-08-31T15:26:08.308Z,0.70
2022-08-31T15:31:27.366Z,1.00
2022-08-31T15:36:30.248Z,0.82
2022-08-31T15:41:32.802Z,0.90
2022-08-31T15:46:58.253Z,0.77
2022-08-31T15:52:01.202Z,0.77
2022-08-31T15:57:06.504Z,0.65
2022-08-31T16:02:10.215Z,1.10
2022-08-31T16:07:14.199Z,0.82
2022-08-31T16:12:17.424Z,0.80
2022-08-31T16:17:20.274Z,0.70
2022-08-31T16:22:22.687Z,1.08
2022-08-31T16:27:34.497Z,0.60
2022-08-31T16:32:36.955Z,0.90
2022-08-31T16:37:39.108Z,0.50
2022-08-31T16:42:41.696Z,0.77
2022-08-31T16:47:43.700Z,0.57
2022-08-31T16:52:47.603Z,0.90
2022-08-31T16:57:49.627Z,0.88
2022-08-31T17:02:51.924Z,0.73
2022-08-31T17:07:54.502Z,0.82
2022-08-31T17:12:56.594Z,0.60
2022-08-31T17:17:58.573Z,0.70
2022-08-31T17:23:00.869Z,1.08
2022-08-31T17:28:07.675Z,0.65
2022-08-31T17:33:12.903Z,0.80
2022-08-31T17:38:14.933Z,0.70
2022-08-31T17:43:17.877Z,0.80
2022-08-31T17:48:20.098Z,1.08
2022-08-31T17:53:22.419Z,0.98
2022-08-31T17:58:24.670Z,1.27
2022-08-31T18:03:27.578Z,0.80
2022-08-31T18:08:29.607Z,0.82
2022-08-31T18:13:37.306Z,0.77
2022-08-31T18:18:46.369Z,1.02
2022-08-31T18:23:53.102Z,0.90
2022-08-31T18:28:57.375Z,0.80
2022-08-31T18:34:10.492Z,2.20
2022-08-31T18:39:25.952Z,1.33
2022-08-31T18:44:58.094Z,1.73
2022-08-31T18:50:03.155Z,1.27
2022-08-31T18:55:05.527Z,0.82
2022-08-31T19:00:08.690Z,1.30
2022-08-31T19:05:14.718Z,1.00
2022-08-31T19:10:21.012Z,1.75
2022-08-31T19:15:35.952Z,1.10
2022-08-31T19:20:38.817Z,1.33
2022-08-31T19:25:42.805Z,0.90
2022-08-31T19:30:47.870Z,1.23
2022-08-31T19:36:04.600Z,1.60
2022-08-31T19:41:25.412Z,1.50
2022-08-31T19:46:28.601Z,1.35
2022-08-31T19:51:31.623Z,1.35
2022-08-31T19:56:33.568Z,1.20
2022-08-31T20:01:35.933Z,1.27
2022-08-31T20:06:39.261Z,1.20
2022-08-31T20:11:41.425Z,0.80
2022-08-31T20:16:44.333Z,1.02
2022-08-31T20:22:08.136Z,1.00
2022-08-31T20:27:13.160Z,1.38
2022-08-31T20:32:15.053Z,1.30
2022-08-31T20:37:16.905Z,1.15
2022-08-31T20:42:20.067Z,1.05
2022-08-31T20:47:40.271Z,1.10
2022-08-31T20:52:42.226Z,1.00
2022-08-31T20:57:46.490Z,1.20
2022-08-31T21:02:49.935Z,1.17
2022-08-31T21:07:57.915Z,1.40
2022-08-31T21:13:01.313Z,1.25
2022-08-31T21:18:03.432Z,1.10
2022-08-31T21:23:10.645Z,1.13
2022-08-31T21:28:17.223Z,0.90
2022-08-31T21:33:19.951Z,1.10
2022-08-31T21:38:22.016Z,1.13
2022-08-31T21:43:23.924Z,0.90
2022-08-31T21:48:26.401Z,1.13
2022-08-31T21:53:28.571Z,1.38
2022-08-31T21:58:31.550Z,1.15
2022-08-31T22:03:44.588Z,1.30
2022-08-31T22:08:46.516Z,1.17
2022-08-31T22:13:55.265Z,1.27
2022-08-31T22:19:01.627Z,1.33
2022-08-31T22:24:07.645Z,1.60
2022-08-31T22:29:12.461Z,1.00
2022-08-31T22:34:17.471Z,1.60
2022-08-31T22:39:22.953Z,1.35
2022-08-31T22:44:27.584Z,1.38
2022-08-31T22:49:29.807Z,1.20
2022-08-31T22:54:32.241Z,1.88
2022-08-31T22:59:34.143Z,2.00
2022-08-31T23:04:38.586Z,1.73
2022-08-31T23:09:44.701Z,2.10
2022-08-31T23:14:46.920Z,2.00
2022-08-31T23:19:54.313Z,1.80
2022-08-31T23:25:00.067Z,1.98
2022-08-31T23:30:02.436Z,1.55
2022-08-31T23:35:05.811Z,1.98
2022-08-31T23:40:08.989Z,2.13
2022-08-31T23:45:11.300Z,1.90
2022-08-31T23:50:14.951Z,2.20
2022-08-31T23:55:16.840Z,1.98
